• Join FlightAware (Why Join?)
  • Login
  • US Flag 
08:34PM EDT


 

Airport Tracker/Info


-or-


 

Live Flight TrackerFlight Track Log ✈ N384RV ✈ 26-Jun-2013 ✈ KRFD - KABE

Flight Track Log - Related Links

Times and Time Zones

All times are in EDT time to prevent confusion due to time zone crossing. See the N384RV flight status page for this flight to view local times or setup timezone preferences in your user account.

Time Position Orientation Groundspeed Altitude Reporting Facility
EDT Latitude Longitude Course Direction KTS MPH feet Rate Location/Type
12:37PM 42.2169 -89.0439 111° Southeast 197 227 4,300  Level Chicago Center
12:38PM 42.1922 -88.9583 111° Southeast 246 283 7,500 3,240 Climbing Chicago Center
12:39PM 42.1619 -88.8647 114° Southeast 268 308 11,100 3,120 Climbing Chicago Center
12:40PM 42.1236 -88.7594 116° Southeast 309 356 14,000 3,000 Climbing Chicago Center
12:41PM 42.0831 -88.6378 114° Southeast 352 405 17,400 2,820 Climbing Chicago Center
12:42PM 42.0675 -88.5017 99° East 364 419 19,900 2,400 Climbing Chicago Center
12:43PM 42.0539 -88.3319 96° East 381 438 22,400 2,040 Climbing Chicago Center
12:44PM 42.0411 -88.1858 97° East 391 450 24,200 1,500 Climbing Chicago Center
12:45PM 42.0286 -88.0422 97° East 388 447 25,600 1,080 Climbing Chicago Center
12:46PM 42.0144 -87.8942 97° East 396 456 26,500 840 Climbing Chicago Center
12:47PM 42.0008 -87.7431 97° East 405 466 27,400 960 Climbing Chicago Center
12:48PM 41.9867 -87.5858 97° East 420 483 28,600 1,440 Climbing Chicago Center
12:49PM 41.9683 -87.3850 97° East 447 514 30,500 1,620 Climbing Chicago Center
12:50PM 41.9522 -87.2153 97° East 458 527 32,000 1,500 Climbing Chicago Center
12:51PM 41.9344 -87.0408 98° East 471 542 33,600 1,560 Climbing Chicago Center
12:52PM 41.9189 -86.8661 97° East 473 544 35,300 1,500 Climbing Chicago Center
12:53PM 41.8983 -86.6644 98° East 476 548 36,800 1,380 Climbing Chicago Center
12:54PM 41.8800 -86.4853 98° East 484 557 38,200 1,380 Climbing Chicago Center
12:55PM 41.8622 -86.3081 98° East 483 556 39,700 1,440 Climbing Chicago Center
12:57PM 41.8436 -86.1328 98° East 475 547 41,200 1,200 Climbing Chicago Center
12:58PM 41.8258 -85.9608 98° East 468 539 42,300 840 Climbing Chicago Center
12:59PM 41.8072 -85.7875 98° East 469 540 43,000 600 Climbing Chicago Center
01:00PM 41.7853 -85.5761 98° East 475 547 43,600 600 Climbing Chicago Center
01:01PM 41.7689 -85.3950 97° East 478 550 44,300 660 Climbing Chicago Center
01:02PM 41.7467 -85.2186 100° East 477 549 45,000 300 Climbing Chicago Center
01:03PM 41.7433 -85.0406 91° East 486 559 45,000  Level Chicago Center
01:04PM 41.7344 -84.8656 94° East 473 544 45,000  Level Chicago Center
01:05PM 41.7244 -84.6933 94° East 466 536 45,000  Level Chicago Center
01:06PM 41.7186 -84.5422 93° East 462 532 45,000  Level Cleveland Center
01:07PM 41.7097 -84.3692 94° East 462 532 45,000  Level Cleveland Center
01:08PM 41.6967 -84.1931 96° East 468 539 45,000  Level Cleveland Center
01:09PM 41.6875 -84.0172 94° East 468 539 45,000  Level Cleveland Center
01:10PM 41.6758 -83.8414 95° East 468 539 45,000  Level Cleveland Center
01:11PM 41.6664 -83.6631 94° East 468 539 45,000  Level Cleveland Center
01:12PM 41.6561 -83.4903 94° East 468 539 45,000  Level Cleveland Center
01:13PM 41.6461 -83.3092 94° East 474 545 45,000  Level Cleveland Center
01:14PM 41.6358 -83.1197 94° East 474 545 45,000  Level Cleveland Center
01:15PM 41.6250 -82.9417 95° East 479 551 45,000  Level Cleveland Center
01:16PM 41.6136 -82.7828 95° East 484 557 45,000  Level Cleveland Center
01:17PM 41.6022 -82.6047 95° East 484 557 45,000  Level Cleveland Center
01:18PM 41.5908 -82.4267 95° East 479 551 45,000  Level Cleveland Center
01:19PM 41.5789 -82.2458 95° East 484 557 45,000  Level Cleveland Center
01:20PM 41.5667 -82.0706 95° East 478 550 45,000  Level Cleveland Center
01:21PM 41.5544 -81.8733 95° East 478 550 45,000  Level Cleveland Center
01:22PM 41.5397 -81.6928 96° East 484 557 45,000  Level Cleveland Center
01:23PM 41.5267 -81.5122 95° East 484 557 45,000  Level Cleveland Center
01:24PM 41.5114 -81.3347 96° East 484 557 45,000  Level Cleveland Center
01:25PM 41.4958 -81.1569 97° East 479 551 45,000  Level Cleveland Center
01:26PM 41.4839 -80.9989 96° East 484 557 45,000  Level Cleveland Center
01:27PM 41.4697 -80.8242 96° East 484 557 45,000  Level Cleveland Center
01:28PM 41.4533 -80.6469 97° East 484 557 45,000  Level Cleveland Center
01:29PM 41.4389 -80.4725 96° East 484 557 45,000 -720 Level Cleveland Center
01:30PM 41.4239 -80.2758 96° East 484 557 43,600 -1,500 Descending Cleveland Center
01:31PM 41.4086 -80.0986 96° East 484 557 42,000 -1,560 Descending Cleveland Center
01:32PM 41.3911 -79.9300 98° East 478 550 40,500 -1,500 Descending Cleveland Center
01:33PM 41.3753 -79.7447 96° East 484 557 39,000 -1,560 Descending Cleveland Center
01:34PM 41.3614 -79.5650 96° East 489 563 37,500 -1,560 Descending Cleveland Center
01:35PM 41.3431 -79.3883 98° East 484 557 36,000 -1,500 Descending Cleveland Center
01:36PM 41.3242 -79.2089 98° East 484 557 34,500 -1,560 Descending Cleveland Center
01:37PM 41.3053 -79.0186 97° East 489 563 32,900 -1,680 Descending Cleveland Center
01:38PM 41.2878 -78.8228 97° East 505 581 31,200 -1,800 Descending Cleveland Center
01:39PM 41.2681 -78.6383 98° East 520 598 29,400 -1,740 Descending Cleveland Center
01:40PM 41.2481 -78.4539 98° East 520 598 27,800 -1,620 Descending Cleveland Center
01:41PM 41.2303 -78.2700 97° East 513 590 26,400 -1,500 Descending New York Center
01:42PM 41.2089 -78.1131 100° East 500 575 25,000 -720 Descending New York Center
01:43PM 41.1756 -77.9411 104° East 488 562 25,000  Level New York Center
01:44PM 41.1400 -77.7692 105° East 481 554 25,000  Level New York Center
01:45PM 41.1064 -77.5950 104° East 487 560 25,000  Level New York Center
01:46PM 41.0725 -77.4236 105° East 487 560 25,000  Level New York Center
01:47PM 41.0392 -77.2717 106° East 487 560 25,000 -540 Level New York Center
01:48PM 41.0047 -77.1008 105° East 487 560 24,000 -1,260 Descending New York Center
01:49PM 40.9700 -76.9297 105° East 487 560 22,500 -1,500 Descending New York Center
01:50PM 40.9344 -76.7672 106° East 471 542 21,000 -1,800 Descending New York Center
01:51PM 40.9047 -76.6108 104° East 460 529 18,900 -2,160 Descending New York Center
01:52PM 40.8708 -76.4542 106° East 444 511 16,800 -2,340 Descending New York Center
01:53PM 40.8369 -76.2894 105° East 433 498 14,300 -2,340 Descending New York Center
01:54PM 40.8081 -76.1447 105° East 417 480 12,100 -2,100 Descending New York Center
01:55PM 40.7783 -76.0161 107° East 388 447 10,100 -1,800 Descending New York Center
01:56PM 40.7542 -75.9022 106° East 333 383 8,600 -1,500 Descending New York Center
01:57PM 40.7383 -75.7886 100° East 318 366 7,100 -1,500 Descending New York Center
01:58PM 40.7450 -75.6822 85° East 300 345 5,600 -1,500 Descending New York Center
01:59PM 40.7489 -75.5867 87° East 287 330 4,200 -960 Descending New York Center
02:00PM 40.7525 -75.4936 87° East 272 313 3,800 -600 Descending New York Center
02:01PM 40.7308 -75.4100 109° East 229 264 3,000 -1,200 Descending New York Center
02:02PM 40.6903 -75.3800 151° Southeast 185 213 1,500 -900 Descending New York Center
02:03PM 40.6544 -75.3419 141° Southeast 170 196 1,300 4,620 Descending New York Center
02:04PM 40.6206 -75.2986 136° Southeast 170 196 11,000 4,860 Climbing New York Center
02:05PM 40.5847 -75.2553 137° Southeast 170 196 11,000  Level New York Center
02:06PM 40.5508 -75.2122 136° Southeast 170 196 11,000  Level New York Center
02:07PM 40.5431 -75.2033 139° Southeast 170 196 11,000  Level New York Center